sensor_id;sensor_type;location;lat;lon;timestamp;P1;durP1;ratioP1;P2;durP2;ratioP2
37275;SDS011;23166;51.150;21.620;2022-12-18T00:01:05;10.40;;;6.60;;
37275;SDS011;23166;51.150;21.620;2022-12-18T00:03:52;6.40;;;4.67;;
37275;SDS011;23166;51.150;21.620;2022-12-18T00:06:19;7.13;;;4.60;;
37275;SDS011;23166;51.150;21.620;2022-12-18T00:08:46;7.47;;;5.63;;
37275;SDS011;23166;51.150;21.620;2022-12-18T00:13:41;8.33;;;4.57;;
37275;SDS011;23166;51.150;21.620;2022-12-18T00:16:13;3.27;;;3.00;;
37275;SDS011;23166;51.150;21.620;2022-12-18T00:18:38;8.60;;;5.20;;
37275;SDS011;23166;51.150;21.620;2022-12-18T00:21:05;12.07;;;6.65;;
37275;SDS011;23166;51.150;21.620;2022-12-18T00:23:33;19.07;;;5.20;;
37275;SDS011;23166;51.150;21.620;2022-12-18T00:26:20;14.67;;;4.13;;
37275;SDS011;23166;51.150;21.620;2022-12-18T00:28:33;4.53;;;4.13;;
37275;SDS011;23166;51.150;21.620;2022-12-18T00:31:05;4.37;;;3.50;;
37275;SDS011;23166;51.150;21.620;2022-12-18T00:33:29;2.80;;;2.10;;
37275;SDS011;23166;51.150;21.620;2022-12-18T00:36:06;11.22;;;7.78;;
37275;SDS011;23166;51.150;21.620;2022-12-18T00:38:31;13.00;;;5.97;;
37275;SDS011;23166;51.150;21.620;2022-12-18T00:40:57;5.42;;;4.03;;
37275;SDS011;23166;51.150;21.620;2022-12-18T00:43:23;8.30;;;3.95;;
37275;SDS011;23166;51.150;21.620;2022-12-18T00:45:50;11.22;;;3.83;;
37275;SDS011;23166;51.150;21.620;2022-12-18T00:48:16;9.35;;;3.87;;
37275;SDS011;23166;51.150;21.620;2022-12-18T00:50:43;4.47;;;3.65;;
37275;SDS011;23166;51.150;21.620;2022-12-18T00:53:09;5.53;;;3.52;;
37275;SDS011;23166;51.150;21.620;2022-12-18T00:55:39;9.63;;;5.37;;
37275;SDS011;23166;51.150;21.620;2022-12-18T00:58:06;15.77;;;5.43;;
37275;SDS011;23166;51.150;21.620;2022-12-18T01:00:34;27.53;;;5.20;;
37275;SDS011;23166;51.150;21.620;2022-12-18T01:03:00;3.87;;;2.15;;
37275;SDS011;23166;51.150;21.620;2022-12-18T01:05:28;16.23;;;4.73;;
37275;SDS011;23166;51.150;21.620;2022-12-18T01:07:55;8.08;;;4.87;;
37275;SDS011;23166;51.150;21.620;2022-12-18T01:10:22;11.57;;;6.67;;
37275;SDS011;23166;51.150;21.620;2022-12-18T01:12:49;9.03;;;4.20;;
37275;SDS011;23166;51.150;21.620;2022-12-18T01:17:42;5.13;;;3.23;;
37275;SDS011;23166;51.150;21.620;2022-12-18T01:20:09;4.62;;;4.30;;
37275;SDS011;23166;51.150;21.620;2022-12-18T01:22:37;4.80;;;3.63;;
37275;SDS011;23166;51.150;21.620;2022-12-18T01:25:03;4.95;;;3.37;;
37275;SDS011;23166;51.150;21.620;2022-12-18T01:27:32;7.23;;;3.73;;
37275;SDS011;23166;51.150;21.620;2022-12-18T01:29:59;10.90;;;5.57;;
37275;SDS011;23166;51.150;21.620;2022-12-18T01:32:25;3.98;;;3.60;;
37275;SDS011;23166;51.150;21.620;2022-12-18T01:34:52;6.17;;;2.65;;
37275;SDS011;23166;51.150;21.620;2022-12-18T01:37:18;6.17;;;3.95;;
37275;SDS011;23166;51.150;21.620;2022-12-18T01:39:45;4.90;;;3.37;;
37275;SDS011;23166;51.150;21.620;2022-12-18T01:42:12;8.30;;;3.15;;
37275;SDS011;23166;51.150;21.620;2022-12-18T01:47:41;3.27;;;3.00;;
37275;SDS011;23166;51.150;21.620;2022-12-18T01:52:39;2.27;;;2.07;;
37275;SDS011;23166;51.150;21.620;2022-12-18T01:55:08;9.23;;;4.53;;
37275;SDS011;23166;51.150;21.620;2022-12-18T01:57:36;3.60;;;3.30;;
37275;SDS011;23166;51.150;21.620;2022-12-18T02:00:06;4.43;;;3.30;;
37275;SDS011;23166;51.150;21.620;2022-12-18T02:02:33;8.53;;;4.57;;
37275;SDS011;23166;51.150;21.620;2022-12-18T02:05:00;10.70;;;3.62;;
37275;SDS011;23166;51.150;21.620;2022-12-18T02:07:35;7.77;;;3.83;;
37275;SDS011;23166;51.150;21.620;2022-12-18T02:09:59;22.83;;;5.83;;
37275;SDS011;23166;51.150;21.620;2022-12-18T02:12:31;7.27;;;5.03;;
37275;SDS011;23166;51.150;21.620;2022-12-18T02:15:09;9.78;;;3.55;;
37275;SDS011;23166;51.150;21.620;2022-12-18T02:26:02;7.67;;;2.83;;
37275;SDS011;23166;51.150;21.620;2022-12-18T02:28:34;4.83;;;2.87;;
37275;SDS011;23166;51.150;21.620;2022-12-18T02:31:03;4.33;;;3.67;;
37275;SDS011;23166;51.150;21.620;2022-12-18T02:33:32;13.00;;;4.63;;
37275;SDS011;23166;51.150;21.620;2022-12-18T02:36:00;12.97;;;4.83;;
37275;SDS011;23166;51.150;21.620;2022-12-18T02:38:29;3.10;;;2.07;;
37275;SDS011;23166;51.150;21.620;2022-12-18T02:40:57;9.33;;;4.87;;
37275;SDS011;23166;51.150;21.620;2022-12-18T02:43:24;12.53;;;2.97;;
37275;SDS011;23166;51.150;21.620;2022-12-18T02:45:55;6.90;;;4.28;;
37275;SDS011;23166;51.150;21.620;2022-12-18T02:48:31;7.57;;;5.47;;
37275;SDS011;23166;51.150;21.620;2022-12-18T02:51:09;8.93;;;3.87;;
37275;SDS011;23166;51.150;21.620;2022-12-18T02:53:53;4.57;;;3.40;;
37275;SDS011;23166;51.150;21.620;2022-12-18T02:56:28;3.53;;;3.20;;
37275;SDS011;23166;51.150;21.620;2022-12-18T02:59:02;6.27;;;3.67;;
37275;SDS011;23166;51.150;21.620;2022-12-18T03:07:11;16.30;;;3.90;;
37275;SDS011;23166;51.150;21.620;2022-12-18T03:09:41;6.77;;;3.97;;
37275;SDS011;23166;51.150;21.620;2022-12-18T03:12:21;11.97;;;4.67;;
37275;SDS011;23166;51.150;21.620;2022-12-18T03:17:42;4.93;;;4.53;;
37275;SDS011;23166;51.150;21.620;2022-12-18T03:20:15;7.37;;;4.10;;
37275;SDS011;23166;51.150;21.620;2022-12-18T03:22:44;10.50;;;4.07;;
37275;SDS011;23166;51.150;21.620;2022-12-18T03:25:14;4.30;;;2.47;;
37275;SDS011;23166;51.150;21.620;2022-12-18T03:27:45;15.17;;;4.73;;
37275;SDS011;23166;51.150;21.620;2022-12-18T03:30:13;6.93;;;4.53;;
37275;SDS011;23166;51.150;21.620;2022-12-18T03:35:22;8.00;;;4.57;;
37275;SDS011;23166;51.150;21.620;2022-12-18T03:37:50;7.43;;;4.90;;
37275;SDS011;23166;51.150;21.620;2022-12-18T03:40:17;5.00;;;3.50;;
37275;SDS011;23166;51.150;21.620;2022-12-18T03:48:05;7.57;;;4.33;;
37275;SDS011;23166;51.150;21.620;2022-12-18T03:55:56;6.43;;;4.93;;
37275;SDS011;23166;51.150;21.620;2022-12-18T03:58:25;7.83;;;5.57;;
37275;SDS011;23166;51.150;21.620;2022-12-18T04:00:53;5.73;;;3.10;;
37275;SDS011;23166;51.150;21.620;2022-12-18T04:03:22;6.97;;;3.40;;
37275;SDS011;23166;51.150;21.620;2022-12-18T04:05:50;5.53;;;3.27;;
37275;SDS011;23166;51.150;21.620;2022-12-18T04:08:18;6.10;;;4.10;;
37275;SDS011;23166;51.150;21.620;2022-12-18T04:10:45;8.70;;;3.60;;
37275;SDS011;23166;51.150;21.620;2022-12-18T04:13:12;6.75;;;4.40;;
37275;SDS011;23166;51.150;21.620;2022-12-18T04:15:40;7.67;;;3.73;;
37275;SDS011;23166;51.150;21.620;2022-12-18T04:18:07;14.58;;;4.40;;
37275;SDS011;23166;51.150;21.620;2022-12-18T04:20:34;7.13;;;3.53;;
37275;SDS011;23166;51.150;21.620;2022-12-18T04:23:00;6.92;;;2.08;;
37275;SDS011;23166;51.150;21.620;2022-12-18T04:25:26;7.85;;;4.03;;
37275;SDS011;23166;51.150;21.620;2022-12-18T04:27:53;16.23;;;2.45;;
37275;SDS011;23166;51.150;21.620;2022-12-18T04:30:19;7.55;;;2.95;;
37275;SDS011;23166;51.150;21.620;2022-12-18T04:32:47;3.08;;;2.83;;
37275;SDS011;23166;51.150;21.620;2022-12-18T04:35:13;9.67;;;3.00;;
37275;SDS011;23166;51.150;21.620;2022-12-18T04:37:39;2.25;;;1.95;;
37275;SDS011;23166;51.150;21.620;2022-12-18T04:40:06;4.33;;;2.30;;
37275;SDS011;23166;51.150;21.620;2022-12-18T04:42:33;8.13;;;3.17;;
37275;SDS011;23166;51.150;21.620;2022-12-18T04:44:59;11.78;;;4.15;;
37275;SDS011;23166;51.150;21.620;2022-12-18T04:47:26;5.20;;;4.55;;
37275;SDS011;23166;51.150;21.620;2022-12-18T04:49:52;11.12;;;3.33;;
37275;SDS011;23166;51.150;21.620;2022-12-18T04:52:18;12.30;;;4.25;;
37275;SDS011;23166;51.150;21.620;2022-12-18T04:54:45;10.38;;;4.72;;
37275;SDS011;23166;51.150;21.620;2022-12-18T04:57:11;4.90;;;4.35;;
37275;SDS011;23166;51.150;21.620;2022-12-18T04:59:37;7.72;;;6.58;;
37275;SDS011;23166;51.150;21.620;2022-12-18T05:02:04;5.80;;;4.05;;
37275;SDS011;23166;51.150;21.620;2022-12-18T05:04:30;4.78;;;3.58;;
37275;SDS011;23166;51.150;21.620;2022-12-18T05:06:57;13.18;;;4.25;;
37275;SDS011;23166;51.150;21.620;2022-12-18T05:09:23;6.08;;;4.22;;
37275;SDS011;23166;51.150;21.620;2022-12-18T05:11:49;4.80;;;3.35;;
37275;SDS011;23166;51.150;21.620;2022-12-18T05:14:16;6.85;;;4.25;;
37275;SDS011;23166;51.150;21.620;2022-12-18T05:16:42;10.05;;;5.20;;
37275;SDS011;23166;51.150;21.620;2022-12-18T05:19:08;5.90;;;4.05;;
37275;SDS011;23166;51.150;21.620;2022-12-18T05:21:35;10.80;;;5.95;;
37275;SDS011;23166;51.150;21.620;2022-12-18T05:24:02;4.72;;;2.85;;
37275;SDS011;23166;51.150;21.620;2022-12-18T05:26:28;4.67;;;3.25;;
37275;SDS011;23166;51.150;21.620;2022-12-18T05:28:55;5.20;;;4.40;;
37275;SDS011;23166;51.150;21.620;2022-12-18T05:31:21;9.63;;;3.08;;
37275;SDS011;23166;51.150;21.620;2022-12-18T05:33:47;5.33;;;4.85;;
37275;SDS011;23166;51.150;21.620;2022-12-18T05:36:14;2.72;;;2.08;;
37275;SDS011;23166;51.150;21.620;2022-12-18T05:38:40;8.08;;;3.87;;
37275;SDS011;23166;51.150;21.620;2022-12-18T05:43:34;2.05;;;1.80;;
37275;SDS011;23166;51.150;21.620;2022-12-18T05:46:07;5.73;;;4.53;;
37275;SDS011;23166;51.150;21.620;2022-12-18T05:48:31;5.67;;;4.90;;
37275;SDS011;23166;51.150;21.620;2022-12-18T05:51:02;8.70;;;5.72;;
37275;SDS011;23166;51.150;21.620;2022-12-18T05:53:30;15.93;;;6.00;;
37275;SDS011;23166;51.150;21.620;2022-12-18T05:55:59;8.48;;;3.58;;
37275;SDS011;23166;51.150;21.620;2022-12-18T05:58:32;7.63;;;4.07;;
37275;SDS011;23166;51.150;21.620;2022-12-18T06:03:26;8.10;;;4.33;;
37275;SDS011;23166;51.150;21.620;2022-12-18T06:05:53;6.22;;;4.95;;
37275;SDS011;23166;51.150;21.620;2022-12-18T06:08:19;13.72;;;7.53;;
37275;SDS011;23166;51.150;21.620;2022-12-18T06:10:49;6.15;;;3.87;;
37275;SDS011;23166;51.150;21.620;2022-12-18T06:13:16;6.60;;;5.67;;
37275;SDS011;23166;51.150;21.620;2022-12-18T06:15:43;6.50;;;4.10;;
37275;SDS011;23166;51.150;21.620;2022-12-18T06:18:09;8.90;;;4.50;;
37275;SDS011;23166;51.150;21.620;2022-12-18T06:20:36;4.33;;;3.50;;
37275;SDS011;23166;51.150;21.620;2022-12-18T06:23:04;5.87;;;2.97;;
37275;SDS011;23166;51.150;21.620;2022-12-18T06:25:30;6.92;;;5.53;;
37275;SDS011;23166;51.150;21.620;2022-12-18T06:27:57;5.83;;;3.90;;
37275;SDS011;23166;51.150;21.620;2022-12-18T06:30:23;9.78;;;4.70;;
37275;SDS011;23166;51.150;21.620;2022-12-18T06:32:50;19.45;;;6.75;;
37275;SDS011;23166;51.150;21.620;2022-12-18T06:35:16;5.05;;;3.65;;
37275;SDS011;23166;51.150;21.620;2022-12-18T06:37:42;8.75;;;5.10;;
37275;SDS011;23166;51.150;21.620;2022-12-18T06:40:09;17.87;;;5.92;;
37275;SDS011;23166;51.150;21.620;2022-12-18T06:42:35;10.13;;;4.58;;
37275;SDS011;23166;51.150;21.620;2022-12-18T06:45:02;12.80;;;3.35;;
37275;SDS011;23166;51.150;21.620;2022-12-18T06:47:28;14.33;;;6.20;;
37275;SDS011;23166;51.150;21.620;2022-12-18T06:49:55;9.10;;;4.92;;
37275;SDS011;23166;51.150;21.620;2022-12-18T06:52:21;17.20;;;5.12;;
37275;SDS011;23166;51.150;21.620;2022-12-18T06:54:48;18.20;;;6.35;;
37275;SDS011;23166;51.150;21.620;2022-12-18T06:57:14;4.55;;;4.22;;
37275;SDS011;23166;51.150;21.620;2022-12-18T06:59:40;18.23;;;7.45;;
37275;SDS011;23166;51.150;21.620;2022-12-18T07:02:09;10.63;;;5.28;;
37275;SDS011;23166;51.150;21.620;2022-12-18T07:04:37;13.03;;;7.83;;
37275;SDS011;23166;51.150;21.620;2022-12-18T07:07:03;19.85;;;8.83;;
37275;SDS011;23166;51.150;21.620;2022-12-18T07:09:29;20.57;;;11.57;;
37275;SDS011;23166;51.150;21.620;2022-12-18T07:11:56;22.82;;;8.15;;
37275;SDS011;23166;51.150;21.620;2022-12-18T07:14:22;11.97;;;7.70;;
37275;SDS011;23166;51.150;21.620;2022-12-18T07:16:48;8.63;;;5.28;;
37275;SDS011;23166;51.150;21.620;2022-12-18T07:19:15;20.70;;;8.33;;
37275;SDS011;23166;51.150;21.620;2022-12-18T07:21:41;15.98;;;8.58;;
37275;SDS011;23166;51.150;21.620;2022-12-18T07:24:08;13.20;;;5.40;;
37275;SDS011;23166;51.150;21.620;2022-12-18T07:26:34;10.53;;;6.72;;
37275;SDS011;23166;51.150;21.620;2022-12-18T07:29:00;14.55;;;5.60;;
37275;SDS011;23166;51.150;21.620;2022-12-18T07:31:27;46.23;;;7.97;;
37275;SDS011;23166;51.150;21.620;2022-12-18T07:33:53;15.15;;;8.85;;
37275;SDS011;23166;51.150;21.620;2022-12-18T07:36:23;19.45;;;8.90;;
37275;SDS011;23166;51.150;21.620;2022-12-18T07:38:49;16.60;;;5.83;;
37275;SDS011;23166;51.150;21.620;2022-12-18T07:41:17;12.73;;;6.80;;
37275;SDS011;23166;51.150;21.620;2022-12-18T07:48:42;11.97;;;8.00;;
37275;SDS011;23166;51.150;21.620;2022-12-18T07:51:11;15.57;;;8.00;;
37275;SDS011;23166;51.150;21.620;2022-12-18T07:53:38;18.13;;;7.83;;
37275;SDS011;23166;51.150;21.620;2022-12-18T07:56:07;12.27;;;5.53;;
37275;SDS011;23166;51.150;21.620;2022-12-18T07:58:35;7.10;;;4.67;;
37275;SDS011;23166;51.150;21.620;2022-12-18T08:01:03;21.37;;;6.40;;
37275;SDS011;23166;51.150;21.620;2022-12-18T08:03:31;16.40;;;7.77;;
37275;SDS011;23166;51.150;21.620;2022-12-18T08:06:01;10.63;;;6.95;;
37275;SDS011;23166;51.150;21.620;2022-12-18T08:08:29;7.53;;;4.47;;
37275;SDS011;23166;51.150;21.620;2022-12-18T08:10:56;4.77;;;3.87;;
37275;SDS011;23166;51.150;21.620;2022-12-18T08:13:23;10.68;;;4.60;;
37275;SDS011;23166;51.150;21.620;2022-12-18T08:16:03;19.00;;;8.30;;
37275;SDS011;23166;51.150;21.620;2022-12-18T08:18:32;6.97;;;6.27;;
37275;SDS011;23166;51.150;21.620;2022-12-18T08:21:07;5.73;;;4.73;;
37275;SDS011;23166;51.150;21.620;2022-12-18T08:23:41;10.97;;;3.43;;
37275;SDS011;23166;51.150;21.620;2022-12-18T08:26:08;11.13;;;6.33;;
37275;SDS011;23166;51.150;21.620;2022-12-18T08:28:36;8.27;;;4.20;;
37275;SDS011;23166;51.150;21.620;2022-12-18T08:35:55;11.50;;;5.62;;
37275;SDS011;23166;51.150;21.620;2022-12-18T08:38:21;3.55;;;2.58;;
37275;SDS011;23166;51.150;21.620;2022-12-18T08:43:15;9.45;;;3.65;;
37275;SDS011;23166;51.150;21.620;2022-12-18T08:45:59;7.60;;;3.93;;
37275;SDS011;23166;51.150;21.620;2022-12-18T08:48:26;5.12;;;3.52;;
37275;SDS011;23166;51.150;21.620;2022-12-18T08:50:55;8.30;;;4.55;;
37275;SDS011;23166;51.150;21.620;2022-12-18T08:53:23;7.90;;;4.20;;
37275;SDS011;23166;51.150;21.620;2022-12-18T08:55:49;5.72;;;2.87;;
37275;SDS011;23166;51.150;21.620;2022-12-18T08:58:16;19.20;;;5.60;;
37275;SDS011;23166;51.150;21.620;2022-12-18T09:00:42;12.63;;;5.83;;
37275;SDS011;23166;51.150;21.620;2022-12-18T09:03:17;9.88;;;4.28;;
37275;SDS011;23166;51.150;21.620;2022-12-18T09:05:42;4.20;;;2.37;;
37275;SDS011;23166;51.150;21.620;2022-12-18T09:08:09;7.27;;;4.23;;
37275;SDS011;23166;51.150;21.620;2022-12-18T09:10:40;7.08;;;3.45;;
37275;SDS011;23166;51.150;21.620;2022-12-18T09:13:11;3.83;;;3.23;;
37275;SDS011;23166;51.150;21.620;2022-12-18T09:15:46;5.97;;;3.77;;
37275;SDS011;23166;51.150;21.620;2022-12-18T09:18:11;22.47;;;6.53;;
37275;SDS011;23166;51.150;21.620;2022-12-18T09:20:38;14.47;;;5.83;;
37275;SDS011;23166;51.150;21.620;2022-12-18T09:23:05;7.25;;;3.22;;
37275;SDS011;23166;51.150;21.620;2022-12-18T09:25:33;14.53;;;5.37;;
37275;SDS011;23166;51.150;21.620;2022-12-18T09:28:06;6.07;;;3.63;;
37275;SDS011;23166;51.150;21.620;2022-12-18T09:30:30;10.60;;;4.40;;
37275;SDS011;23166;51.150;21.620;2022-12-18T09:32:58;8.87;;;5.17;;
37275;SDS011;23166;51.150;21.620;2022-12-18T09:37:53;8.83;;;5.00;;
37275;SDS011;23166;51.150;21.620;2022-12-18T09:40:21;14.03;;;4.67;;
37275;SDS011;23166;51.150;21.620;2022-12-18T09:42:57;17.50;;;6.70;;
37275;SDS011;23166;51.150;21.620;2022-12-18T09:45:26;5.45;;;2.30;;
37275;SDS011;23166;51.150;21.620;2022-12-18T09:47:53;7.13;;;6.20;;
37275;SDS011;23166;51.150;21.620;2022-12-18T09:53:02;5.03;;;3.63;;
37275;SDS011;23166;51.150;21.620;2022-12-18T09:58:19;21.33;;;5.80;;
37275;SDS011;23166;51.150;21.620;2022-12-18T10:00:46;15.17;;;5.53;;
37275;SDS011;23166;51.150;21.620;2022-12-18T10:03:13;8.65;;;6.17;;
37275;SDS011;23166;51.150;21.620;2022-12-18T10:14:59;10.03;;;4.77;;
37275;SDS011;23166;51.150;21.620;2022-12-18T10:19:53;16.13;;;7.47;;
37275;SDS011;23166;51.150;21.620;2022-12-18T10:27:51;10.20;;;5.03;;
37275;SDS011;23166;51.150;21.620;2022-12-18T10:30:24;15.47;;;6.27;;
37275;SDS011;23166;51.150;21.620;2022-12-18T10:32:51;16.17;;;8.20;;
37275;SDS011;23166;51.150;21.620;2022-12-18T10:35:22;6.42;;;5.67;;
37275;SDS011;23166;51.150;21.620;2022-12-18T10:38:00;9.73;;;5.07;;
37275;SDS011;23166;51.150;21.620;2022-12-18T10:40:47;5.60;;;3.87;;
37275;SDS011;23166;51.150;21.620;2022-12-18T10:43:19;9.70;;;4.80;;
37275;SDS011;23166;51.150;21.620;2022-12-18T10:45:57;26.13;;;6.47;;
37275;SDS011;23166;51.150;21.620;2022-12-18T10:48:25;6.85;;;3.92;;
37275;SDS011;23166;51.150;21.620;2022-12-18T10:50:53;7.70;;;4.73;;
37275;SDS011;23166;51.150;21.620;2022-12-18T10:53:24;20.63;;;6.10;;
37275;SDS011;23166;51.150;21.620;2022-12-18T10:55:53;3.30;;;3.00;;
37275;SDS011;23166;51.150;21.620;2022-12-18T11:06:13;6.17;;;5.43;;
37275;SDS011;23166;51.150;21.620;2022-12-18T11:08:41;17.63;;;7.97;;
37275;SDS011;23166;51.150;21.620;2022-12-18T11:11:42;14.60;;;5.73;;
37275;SDS011;23166;51.150;21.620;2022-12-18T11:13:55;18.83;;;6.40;;
37275;SDS011;23166;51.150;21.620;2022-12-18T11:16:21;10.07;;;5.70;;
37275;SDS011;23166;51.150;21.620;2022-12-18T11:18:47;9.58;;;6.75;;
37275;SDS011;23166;51.150;21.620;2022-12-18T11:21:14;16.05;;;7.62;;
37275;SDS011;23166;51.150;21.620;2022-12-18T11:23:53;15.88;;;6.97;;
37275;SDS011;23166;51.150;21.620;2022-12-18T11:26:20;18.20;;;6.47;;
37275;SDS011;23166;51.150;21.620;2022-12-18T11:29:07;9.83;;;5.50;;
37275;SDS011;23166;51.150;21.620;2022-12-18T11:31:35;40.80;;;6.33;;
37275;SDS011;23166;51.150;21.620;2022-12-18T11:36:38;10.03;;;3.67;;
37275;SDS011;23166;51.150;21.620;2022-12-18T11:50:14;21.37;;;6.90;;
37275;SDS011;23166;51.150;21.620;2022-12-18T11:52:43;8.47;;;5.77;;
37275;SDS011;23166;51.150;21.620;2022-12-18T11:55:11;9.63;;;5.62;;
37275;SDS011;23166;51.150;21.620;2022-12-18T11:57:48;9.93;;;6.23;;
37275;SDS011;23166;51.150;21.620;2022-12-18T12:00:21;11.33;;;6.03;;
37275;SDS011;23166;51.150;21.620;2022-12-18T12:32:54;21.47;;;9.40;;
37275;SDS011;23166;51.150;21.620;2022-12-18T12:35:23;10.60;;;5.67;;
37275;SDS011;23166;51.150;21.620;2022-12-18T12:41:13;17.03;;;6.90;;
37275;SDS011;23166;51.150;21.620;2022-12-18T12:43:27;11.50;;;6.83;;
37275;SDS011;23166;51.150;21.620;2022-12-18T12:45:59;14.65;;;6.58;;
37275;SDS011;23166;51.150;21.620;2022-12-18T12:51:18;12.17;;;8.63;;
37275;SDS011;23166;51.150;21.620;2022-12-18T12:53:50;4.67;;;3.80;;
37275;SDS011;23166;51.150;21.620;2022-12-18T12:56:18;13.47;;;6.80;;
37275;SDS011;23166;51.150;21.620;2022-12-18T13:04:21;9.40;;;3.27;;
37275;SDS011;23166;51.150;21.620;2022-12-18T13:09:33;16.00;;;5.30;;
37275;SDS011;23166;51.150;21.620;2022-12-18T13:12:02;12.23;;;5.17;;
37275;SDS011;23166;51.150;21.620;2022-12-18T13:14:48;16.90;;;4.50;;
37275;SDS011;23166;51.150;21.620;2022-12-18T13:19:47;15.03;;;5.50;;
37275;SDS011;23166;51.150;21.620;2022-12-18T13:22:21;9.27;;;4.90;;
37275;SDS011;23166;51.150;21.620;2022-12-18T13:24:49;4.30;;;3.93;;
37275;SDS011;23166;51.150;21.620;2022-12-18T13:40:59;18.20;;;6.20;;
37275;SDS011;23166;51.150;21.620;2022-12-18T13:49:06;4.37;;;3.27;;
37275;SDS011;23166;51.150;21.620;2022-12-18T13:51:20;6.30;;;3.97;;
37275;SDS011;23166;51.150;21.620;2022-12-18T13:53:49;4.90;;;2.87;;
37275;SDS011;23166;51.150;21.620;2022-12-18T13:56:18;4.60;;;3.63;;
37275;SDS011;23166;51.150;21.620;2022-12-18T13:59:03;16.27;;;5.17;;
37275;SDS011;23166;51.150;21.620;2022-12-18T14:01:31;17.30;;;4.53;;
37275;SDS011;23166;51.150;21.620;2022-12-18T14:06:49;7.10;;;6.23;;
37275;SDS011;23166;51.150;21.620;2022-12-18T14:09:20;5.00;;;4.53;;
37275;SDS011;23166;51.150;21.620;2022-12-18T14:11:54;11.97;;;4.40;;
37275;SDS011;23166;51.150;21.620;2022-12-18T14:14:24;10.73;;;5.40;;
37275;SDS011;23166;51.150;21.620;2022-12-18T14:16:51;4.58;;;2.15;;
37275;SDS011;23166;51.150;21.620;2022-12-18T14:19:18;3.37;;;3.03;;
37275;SDS011;23166;51.150;21.620;2022-12-18T14:21:45;4.40;;;4.08;;
37275;SDS011;23166;51.150;21.620;2022-12-18T14:24:17;3.40;;;3.10;;
37275;SDS011;23166;51.150;21.620;2022-12-18T14:26:47;7.40;;;3.47;;
37275;SDS011;23166;51.150;21.620;2022-12-18T14:29:19;6.47;;;5.50;;
37275;SDS011;23166;51.150;21.620;2022-12-18T14:34:41;5.80;;;5.00;;
37275;SDS011;23166;51.150;21.620;2022-12-18T14:37:11;9.73;;;4.10;;
37275;SDS011;23166;51.150;21.620;2022-12-18T14:39:40;7.53;;;4.47;;
37275;SDS011;23166;51.150;21.620;2022-12-18T14:42:28;4.70;;;4.27;;
37275;SDS011;23166;51.150;21.620;2022-12-18T14:47:58;13.57;;;3.90;;
37275;SDS011;23166;51.150;21.620;2022-12-18T14:50:26;8.80;;;4.17;;
37275;SDS011;23166;51.150;21.620;2022-12-18T14:52:52;5.53;;;3.05;;
37275;SDS011;23166;51.150;21.620;2022-12-18T14:55:19;10.15;;;4.60;;
37275;SDS011;23166;51.150;21.620;2022-12-18T14:57:49;10.03;;;4.23;;
37275;SDS011;23166;51.150;21.620;2022-12-18T15:00:20;8.03;;;4.47;;
37275;SDS011;23166;51.150;21.620;2022-12-18T15:02:55;5.47;;;5.03;;
37275;SDS011;23166;51.150;21.620;2022-12-18T15:05:27;9.43;;;3.93;;
37275;SDS011;23166;51.150;21.620;2022-12-18T15:07:57;6.30;;;4.57;;
37275;SDS011;23166;51.150;21.620;2022-12-18T15:10:26;7.60;;;2.80;;
37275;SDS011;23166;51.150;21.620;2022-12-18T15:18:14;11.63;;;3.47;;
37275;SDS011;23166;51.150;21.620;2022-12-18T15:26:06;13.63;;;4.97;;
37275;SDS011;23166;51.150;21.620;2022-12-18T15:33:43;8.27;;;3.60;;
37275;SDS011;23166;51.150;21.620;2022-12-18T15:36:12;5.90;;;3.20;;
37275;SDS011;23166;51.150;21.620;2022-12-18T15:38:41;14.60;;;6.10;;
37275;SDS011;23166;51.150;21.620;2022-12-18T15:41:20;10.47;;;5.00;;
37275;SDS011;23166;51.150;21.620;2022-12-18T15:43:45;5.00;;;3.77;;
37275;SDS011;23166;51.150;21.620;2022-12-18T15:48:46;6.97;;;4.30;;
37275;SDS011;23166;51.150;21.620;2022-12-18T15:53:44;4.17;;;3.30;;
37275;SDS011;23166;51.150;21.620;2022-12-18T15:56:11;9.27;;;3.33;;
37275;SDS011;23166;51.150;21.620;2022-12-18T15:58:57;4.22;;;3.75;;
37275;SDS011;23166;51.150;21.620;2022-12-18T16:01:25;9.33;;;4.33;;
37275;SDS011;23166;51.150;21.620;2022-12-18T16:03:55;8.10;;;5.40;;
37275;SDS011;23166;51.150;21.620;2022-12-18T16:08:49;7.08;;;3.25;;
37275;SDS011;23166;51.150;21.620;2022-12-18T16:14:20;11.20;;;6.57;;
37275;SDS011;23166;51.150;21.620;2022-12-18T16:16:40;22.97;;;9.90;;
37275;SDS011;23166;51.150;21.620;2022-12-18T16:19:07;27.05;;;13.00;;
37275;SDS011;23166;51.150;21.620;2022-12-18T16:21:33;16.30;;;6.53;;
37275;SDS011;23166;51.150;21.620;2022-12-18T16:24:00;7.12;;;5.08;;
37275;SDS011;23166;51.150;21.620;2022-12-18T16:26:26;9.50;;;6.92;;
37275;SDS011;23166;51.150;21.620;2022-12-18T16:28:53;10.85;;;7.15;;
37275;SDS011;23166;51.150;21.620;2022-12-18T16:31:19;6.78;;;5.10;;
37275;SDS011;23166;51.150;21.620;2022-12-18T16:33:46;5.37;;;4.10;;
37275;SDS011;23166;51.150;21.620;2022-12-18T16:36:12;4.80;;;4.17;;
37275;SDS011;23166;51.150;21.620;2022-12-18T16:38:39;13.00;;;4.53;;
37275;SDS011;23166;51.150;21.620;2022-12-18T16:41:23;5.72;;;3.55;;
37275;SDS011;23166;51.150;21.620;2022-12-18T16:43:57;8.90;;;2.57;;
37275;SDS011;23166;51.150;21.620;2022-12-18T16:46:24;8.00;;;5.30;;
37275;SDS011;23166;51.150;21.620;2022-12-18T16:48:50;5.78;;;3.70;;
37275;SDS011;23166;51.150;21.620;2022-12-18T16:51:16;6.40;;;4.87;;
37275;SDS011;23166;51.150;21.620;2022-12-18T16:53:43;11.93;;;6.80;;
37275;SDS011;23166;51.150;21.620;2022-12-18T16:56:09;15.78;;;6.92;;
37275;SDS011;23166;51.150;21.620;2022-12-18T16:58:36;19.17;;;9.35;;
37275;SDS011;23166;51.150;21.620;2022-12-18T17:03:31;12.87;;;7.17;;
37275;SDS011;23166;51.150;21.620;2022-12-18T17:06:01;15.80;;;6.65;;
37275;SDS011;23166;51.150;21.620;2022-12-18T17:08:29;34.37;;;17.53;;
37275;SDS011;23166;51.150;21.620;2022-12-18T17:11:06;42.83;;;16.73;;
37275;SDS011;23166;51.150;21.620;2022-12-18T17:13:33;38.98;;;16.75;;
37275;SDS011;23166;51.150;21.620;2022-12-18T17:16:03;24.87;;;10.90;;
37275;SDS011;23166;51.150;21.620;2022-12-18T17:18:31;11.60;;;5.67;;
37275;SDS011;23166;51.150;21.620;2022-12-18T17:20:59;14.90;;;8.70;;
37275;SDS011;23166;51.150;21.620;2022-12-18T17:23:27;33.20;;;14.03;;
37275;SDS011;23166;51.150;21.620;2022-12-18T17:25:54;47.40;;;27.70;;
37275;SDS011;23166;51.150;21.620;2022-12-18T17:28:26;22.50;;;7.20;;
37275;SDS011;23166;51.150;21.620;2022-12-18T17:30:51;17.87;;;10.07;;
37275;SDS011;23166;51.150;21.620;2022-12-18T17:33:18;24.37;;;9.93;;
37275;SDS011;23166;51.150;21.620;2022-12-18T17:35:45;18.80;;;9.30;;
37275;SDS011;23166;51.150;21.620;2022-12-18T17:38:12;35.30;;;10.20;;
37275;SDS011;23166;51.150;21.620;2022-12-18T17:40:38;18.20;;;10.93;;
37275;SDS011;23166;51.150;21.620;2022-12-18T17:45:35;15.07;;;9.80;;
37275;SDS011;23166;51.150;21.620;2022-12-18T17:48:06;24.17;;;8.30;;
37275;SDS011;23166;51.150;21.620;2022-12-18T17:50:33;22.50;;;10.30;;
37275;SDS011;23166;51.150;21.620;2022-12-18T17:55:27;76.17;;;29.43;;
37275;SDS011;23166;51.150;21.620;2022-12-18T17:57:54;84.17;;;28.23;;
37275;SDS011;23166;51.150;21.620;2022-12-18T18:00:20;53.02;;;20.40;;
37275;SDS011;23166;51.150;21.620;2022-12-18T18:02:47;78.87;;;22.60;;
37275;SDS011;23166;51.150;21.620;2022-12-18T18:05:13;57.95;;;19.05;;
37275;SDS011;23166;51.150;21.620;2022-12-18T18:07:40;25.15;;;12.33;;
37275;SDS011;23166;51.150;21.620;2022-12-18T18:10:06;46.23;;;11.15;;